createdAt,value
2018-04-19T00:00:14.556Z,39.78
2018-04-19T00:02:48.119Z,40.12
2018-04-19T00:05:21.668Z,39.60
2018-04-19T00:07:55.500Z,39.99
2018-04-19T00:10:29.272Z,39.44
2018-04-19T00:13:02.820Z,39.11
2018-04-19T00:15:36.398Z,39.58
2018-04-19T00:18:09.982Z,39.66
2018-04-19T00:20:43.509Z,39.98
2018-04-19T00:23:17.045Z,39.48
2018-04-19T00:25:50.560Z,39.69
2018-04-19T00:28:24.100Z,39.61
2018-04-19T00:30:57.599Z,39.73
2018-04-19T00:33:31.252Z,40.41
2018-04-19T00:36:05.029Z,40.26
2018-04-19T00:38:38.590Z,40.01
2018-04-19T00:41:12.150Z,39.85
2018-04-19T00:43:45.835Z,40.04
2018-04-19T00:46:19.497Z,39.31
2018-04-19T00:48:53.107Z,39.58
2018-04-19T00:51:26.924Z,39.41
2018-04-19T00:54:00.559Z,39.56
2018-04-19T00:56:34.112Z,39.52
2018-04-19T00:59:07.860Z,39.58
2018-04-19T01:01:41.655Z,39.60
2018-04-19T01:04:15.313Z,40.85
2018-04-19T01:06:49.095Z,39.82
2018-04-19T01:09:22.618Z,39.53
2018-04-19T01:11:56.143Z,40.28
2018-04-19T01:14:29.667Z,40.02
2018-04-19T01:17:03.229Z,40.04
2018-04-19T01:19:36.812Z,40.21
2018-04-19T01:22:10.344Z,40.11
2018-04-19T01:24:43.887Z,39.94
2018-04-19T01:27:17.523Z,39.89
2018-04-19T01:29:51.148Z,39.69
2018-04-19T01:32:24.638Z,40.00
2018-04-19T01:34:58.380Z,39.94
2018-04-19T01:37:31.960Z,40.04
2018-04-19T01:40:05.456Z,40.95
2018-04-19T01:42:39.203Z,40.13
2018-04-19T01:45:12.892Z,40.18
2018-04-19T01:47:46.710Z,40.60
2018-04-19T01:50:20.272Z,40.55
2018-04-19T01:52:53.804Z,40.73
2018-04-19T01:55:27.347Z,40.65
2018-04-19T01:58:01.464Z,41.03
2018-04-19T02:00:35.192Z,41.59
2018-04-19T02:03:08.772Z,41.96
2018-04-19T02:05:42.516Z,41.81
2018-04-19T02:08:16.333Z,42.30
2018-04-19T02:10:50.072Z,42.07
2018-04-19T02:13:23.816Z,42.40
2018-04-19T02:15:57.349Z,41.97
2018-04-19T02:18:31.106Z,42.48
2018-04-19T02:21:04.752Z,42.09
2018-04-19T02:23:38.304Z,42.23
2018-04-19T02:26:11.855Z,42.94
2018-04-19T02:28:45.422Z,42.96
2018-04-19T02:31:19.172Z,43.25
2018-04-19T02:33:52.800Z,43.06
2018-04-19T02:36:26.328Z,42.94
2018-04-19T02:38:59.872Z,43.40
2018-04-19T02:41:33.412Z,43.92
2018-04-19T02:44:06.953Z,43.47
2018-04-19T02:46:40.460Z,43.04
2018-04-19T02:49:14.188Z,43.34
2018-04-19T02:51:47.842Z,43.20
2018-04-19T02:54:21.316Z,42.41
2018-04-19T02:56:54.930Z,42.32
2018-04-19T02:59:28.553Z,43.19
2018-04-19T03:02:02.338Z,42.64
2018-04-19T03:04:35.930Z,42.80
2018-04-19T03:07:09.540Z,42.21
2018-04-19T03:09:43.136Z,42.10
2018-04-19T03:12:16.720Z,42.48
2018-04-19T03:14:50.488Z,42.98
2018-04-19T03:17:24.043Z,42.61
2018-04-19T03:19:57.743Z,42.86
2018-04-19T03:22:31.285Z,42.89
2018-04-19T03:25:04.979Z,44.17
2018-04-19T03:27:38.574Z,44.38
2018-04-19T03:30:12.287Z,44.89
2018-04-19T03:32:45.811Z,44.74
2018-04-19T03:35:19.549Z,45.64
2018-04-19T03:37:53.326Z,44.88
2018-04-19T03:40:26.848Z,44.81
2018-04-19T03:43:00.556Z,45.33
2018-04-19T03:45:34.158Z,45.31
2018-04-19T03:48:07.732Z,45.37
2018-04-19T03:50:41.283Z,45.42
2018-04-19T03:53:14.843Z,44.67
2018-04-19T03:55:48.399Z,44.58
2018-04-19T03:58:21.972Z,45.10
2018-04-19T04:00:55.497Z,45.25
2018-04-19T04:03:29.028Z,44.36
2018-04-19T04:06:02.775Z,44.29
2018-04-19T04:08:36.506Z,46.21
2018-04-19T04:11:10.083Z,45.11
2018-04-19T04:13:43.605Z,44.39
2018-04-19T04:16:29.192Z,44.09
2018-04-19T04:19:14.676Z,43.50
2018-04-19T04:22:00.429Z,43.83
2018-04-19T04:24:34.251Z,44.08
2018-04-19T04:27:08.072Z,44.23
2018-04-19T04:29:41.735Z,45.84
2018-04-19T04:32:15.460Z,45.38
2018-04-19T04:34:48.973Z,45.43
2018-04-19T04:37:22.538Z,44.40
2018-04-19T04:39:56.075Z,44.46
2018-04-19T04:42:29.672Z,45.46
2018-04-19T04:45:03.406Z,45.14
2018-04-19T04:47:36.957Z,44.56
2018-04-19T04:50:10.484Z,45.34
2018-04-19T04:52:43.952Z,44.93
2018-04-19T04:55:17.727Z,44.85
2018-04-19T04:57:51.383Z,45.06
2018-04-19T05:00:24.925Z,44.18
2018-04-19T05:02:58.658Z,43.46
2018-04-19T05:05:32.752Z,43.25
2018-04-19T05:08:06.409Z,43.99
2018-04-19T05:10:40.165Z,43.52
2018-04-19T05:13:13.692Z,44.96
2018-04-19T05:15:47.291Z,44.30
2018-04-19T05:18:20.923Z,45.18
2018-04-19T05:20:54.546Z,44.42
2018-04-19T05:23:28.310Z,44.70
2018-04-19T05:26:01.801Z,44.95
2018-04-19T05:28:35.372Z,43.43
2018-04-19T05:31:08.960Z,42.96
2018-04-19T05:33:42.698Z,42.41
2018-04-19T05:36:16.464Z,41.88
2018-04-19T05:38:50.295Z,41.21
2018-04-19T05:41:24.072Z,41.80
2018-04-19T05:43:57.684Z,41.58
2018-04-19T05:46:31.257Z,41.33
2018-04-19T05:49:04.840Z,41.09
2018-04-19T05:51:38.365Z,39.11
2018-04-19T05:54:11.948Z,38.35
2018-04-19T05:56:45.499Z,35.56
2018-04-19T05:59:19.260Z,33.84
2018-04-19T06:01:52.793Z,32.74
2018-04-19T06:04:26.333Z,31.01
2018-04-19T06:06:59.857Z,30.65
2018-04-19T06:09:33.829Z,29.42
2018-04-19T06:12:07.459Z,28.03
2018-04-19T06:14:41.072Z,27.40
2018-04-19T06:17:14.592Z,27.55
2018-04-19T06:19:48.141Z,27.21
2018-04-19T06:22:21.703Z,26.20
2018-04-19T06:24:55.243Z,26.26
2018-04-19T06:27:28.742Z,26.29
2018-04-19T06:30:02.464Z,25.11
2018-04-19T06:32:36.787Z,25.27
2018-04-19T06:35:12.183Z,24.56
2018-04-19T06:37:45.896Z,23.54
2018-04-19T06:40:20.099Z,22.87
2018-04-19T06:42:53.827Z,22.14
2018-04-19T06:45:27.385Z,21.72
2018-04-19T06:48:00.976Z,21.54
2018-04-19T06:50:35.352Z,21.19
2018-04-19T06:53:09.100Z,21.05
2018-04-19T06:55:42.796Z,20.87
2018-04-19T06:58:16.364Z,20.77
2018-04-19T07:00:50.680Z,20.62
2018-04-19T07:03:24.423Z,20.54
2018-04-19T07:05:58.292Z,20.22
2018-04-19T07:08:32.033Z,20.00
2018-04-19T07:11:05.583Z,19.85
2018-04-19T07:13:39.297Z,18.83
2018-04-19T07:16:12.872Z,19.20
2018-04-19T07:18:46.440Z,19.47
2018-04-19T07:21:19.950Z,19.84
2018-04-19T07:23:53.504Z,19.89
2018-04-19T07:26:27.079Z,19.68
2018-04-19T07:29:00.856Z,18.95
2018-04-19T07:31:35.242Z,19.21
2018-04-19T07:34:08.988Z,19.64
2018-04-19T07:36:42.574Z,20.25
2018-04-19T07:39:16.668Z,19.92
2018-04-19T07:41:50.278Z,19.23
2018-04-19T07:44:23.820Z,19.39
2018-04-19T07:46:57.344Z,18.92
2018-04-19T07:49:30.888Z,18.27
2018-04-19T07:52:04.610Z,18.14
2018-04-19T07:54:38.359Z,18.37
2018-04-19T07:57:11.912Z,17.91
2018-04-19T07:59:45.428Z,17.40
2018-04-19T08:02:19.207Z,16.95
2018-04-19T08:04:52.832Z,16.91
2018-04-19T08:07:26.391Z,16.95
2018-04-19T08:09:59.987Z,16.46
2018-04-19T08:12:33.695Z,16.22
2018-04-19T08:15:07.188Z,17.28
2018-04-19T08:17:40.652Z,16.37
2018-04-19T08:20:14.216Z,16.46
2018-04-19T08:22:48.003Z,16.14
2018-04-19T08:25:22.657Z,16.28
2018-04-19T08:27:56.163Z,16.36
2018-04-19T08:30:30.044Z,15.80
2018-04-19T08:33:03.651Z,16.23
2018-04-19T08:35:37.837Z,15.25
2018-04-19T08:38:11.565Z,15.34
2018-04-19T08:40:45.232Z,15.49
2018-04-19T08:43:19.961Z,15.29
2018-04-19T08:45:53.640Z,14.97
2018-04-19T08:48:27.797Z,14.13
2018-04-19T08:51:01.665Z,15.06
2018-04-19T08:53:35.495Z,14.88
2018-04-19T08:56:09.348Z,15.16
2018-04-19T08:58:42.954Z,14.61
2018-04-19T09:01:16.756Z,13.99
2018-04-19T09:03:50.744Z,13.79
2018-04-19T09:06:24.329Z,14.50
2018-04-19T09:08:58.068Z,15.37
2018-04-19T09:11:31.700Z,14.16
2018-04-19T09:14:05.252Z,13.79
2018-04-19T09:16:38.805Z,12.86
2018-04-19T09:19:12.484Z,13.42
2018-04-19T09:21:47.016Z,13.65
2018-04-19T09:24:20.563Z,13.59
2018-04-19T09:26:54.320Z,13.34
2018-04-19T09:29:27.804Z,13.01
2018-04-19T09:32:01.348Z,13.50
2018-04-19T09:34:34.883Z,13.19
2018-04-19T09:37:08.683Z,13.74
2018-04-19T09:39:42.253Z,16.17
2018-04-19T09:42:15.874Z,14.53
2018-04-19T09:44:49.522Z,15.72
2018-04-19T09:47:23.192Z,14.99
2018-04-19T09:49:56.699Z,16.50
2018-04-19T09:52:30.321Z,16.56
2018-04-19T09:55:03.831Z,17.91
2018-04-19T09:57:37.460Z,18.53
2018-04-19T10:00:11.018Z,19.90
2018-04-19T10:02:44.640Z,18.26
2018-04-19T10:05:19.895Z,16.61
2018-04-19T10:07:53.604Z,15.95
2018-04-19T10:10:27.268Z,14.76
2018-04-19T10:13:00.884Z,14.88
2018-04-19T10:15:34.462Z,14.36
2018-04-19T10:18:08.065Z,13.91
2018-04-19T10:20:41.719Z,13.92
2018-04-19T10:23:15.440Z,14.49
2018-04-19T10:25:49.135Z,14.71
2018-04-19T10:28:23.480Z,15.09
2018-04-19T10:30:57.216Z,14.48
2018-04-19T10:33:30.768Z,13.75
2018-04-19T10:36:04.292Z,12.61
2018-04-19T10:38:37.875Z,12.77
2018-04-19T10:41:11.417Z,13.07
2018-04-19T10:43:45.129Z,13.45
2018-04-19T10:46:18.744Z,11.28
2018-04-19T10:48:52.368Z,11.06
2018-04-19T10:51:26.161Z,11.08
2018-04-19T10:53:59.880Z,11.75
2018-04-19T10:56:33.569Z,11.02
2018-04-19T10:59:07.339Z,11.06
2018-04-19T11:01:41.069Z,10.97
2018-04-19T11:04:15.730Z,10.92
2018-04-19T11:06:49.509Z,11.47
2018-04-19T11:09:23.062Z,11.96
2018-04-19T11:11:56.797Z,12.01
2018-04-19T11:14:30.436Z,13.71
2018-04-19T11:17:04.049Z,13.14
2018-04-19T11:19:37.605Z,13.74
2018-04-19T11:22:11.512Z,12.40
2018-04-19T11:24:45.261Z,13.14
2018-04-19T11:27:18.937Z,12.53
2018-04-19T11:29:52.545Z,12.84
2018-04-19T11:32:26.231Z,13.18
2018-04-19T11:35:01.955Z,13.72
2018-04-19T11:37:35.677Z,14.87
2018-04-19T11:40:09.281Z,12.98
2018-04-19T11:42:43.002Z,13.16
2018-04-19T11:45:16.765Z,13.35
2018-04-19T11:47:50.600Z,14.26
2018-04-19T11:50:24.317Z,15.01
2018-04-19T11:52:57.962Z,15.05
2018-04-19T11:55:31.719Z,14.98
2018-04-19T11:58:05.390Z,15.36
2018-04-19T12:00:39.153Z,15.40
2018-04-19T12:03:12.970Z,15.70
2018-04-19T12:05:46.628Z,16.10
2018-04-19T12:08:20.312Z,16.13
2018-04-19T12:11:10.011Z,16.54
2018-04-19T12:13:43.798Z,14.91
2018-04-19T12:16:17.326Z,15.85
2018-04-19T12:18:50.872Z,17.24
2018-04-19T12:21:24.428Z,16.33
2018-04-19T12:23:58.193Z,16.24
2018-04-19T12:26:31.802Z,17.64
2018-04-19T12:29:05.408Z,16.50
2018-04-19T12:31:40.232Z,16.89
2018-04-19T12:34:15.124Z,16.45
2018-04-19T12:36:48.808Z,17.92
2018-04-19T12:39:22.484Z,17.66
2018-04-19T12:41:57.544Z,17.15
2018-04-19T12:44:31.225Z,17.32
2018-04-19T12:47:04.760Z,16.87
2018-04-19T12:49:38.546Z,16.47
2018-04-19T12:52:12.247Z,17.15
2018-04-19T12:54:45.773Z,16.93
2018-04-19T12:57:19.413Z,16.21
2018-04-19T12:59:53.035Z,17.78
2018-04-19T13:02:26.659Z,16.41
2018-04-19T13:05:00.301Z,16.04
2018-04-19T13:07:33.964Z,16.44
2018-04-19T13:10:07.735Z,16.09
2018-04-19T13:12:41.372Z,16.46
2018-04-19T13:15:15.068Z,16.61
2018-04-19T13:17:48.606Z,15.65
2018-04-19T13:20:23.084Z,16.69
2018-04-19T13:22:56.788Z,16.77
2018-04-19T13:25:30.353Z,14.93
2018-04-19T13:28:03.842Z,15.67
2018-04-19T13:30:37.442Z,15.87
2018-04-19T13:33:11.515Z,16.56
2018-04-19T13:35:45.201Z,16.14
2018-04-19T13:38:19.019Z,15.01
2018-04-19T13:40:52.625Z,15.02
2018-04-19T13:43:26.209Z,15.36
2018-04-19T13:45:59.954Z,15.33
2018-04-19T13:48:33.501Z,14.96
2018-04-19T13:51:07.227Z,16.20
2018-04-19T13:53:40.807Z,15.02
2018-04-19T13:56:14.398Z,15.26
2018-04-19T13:58:48.008Z,14.91
2018-04-19T14:01:21.596Z,14.68
2018-04-19T14:03:55.291Z,15.05
2018-04-19T14:06:28.980Z,14.97
2018-04-19T14:09:02.682Z,14.66
2018-04-19T14:11:36.468Z,14.78
2018-04-19T14:14:10.015Z,15.16
2018-04-19T14:16:43.724Z,14.44
2018-04-19T14:19:17.470Z,14.11
2018-04-19T14:21:51.023Z,14.19
2018-04-19T14:24:24.797Z,13.68
2018-04-19T14:26:58.560Z,12.28
2018-04-19T14:29:34.614Z,11.15
2018-04-19T14:32:08.289Z,11.19
2018-04-19T14:34:41.908Z,11.09
2018-04-19T14:37:15.575Z,10.13
2018-04-19T14:39:49.221Z,10.77
2018-04-19T14:42:22.781Z,10.31
2018-04-19T14:44:56.468Z,9.97
2018-04-19T14:47:30.028Z,9.25
2018-04-19T14:50:03.806Z,9.55
2018-04-19T14:52:37.596Z,9.88
2018-04-19T14:55:11.260Z,8.97
2018-04-19T14:57:44.881Z,8.69
2018-04-19T15:00:18.337Z,8.81
2018-04-19T15:02:52.158Z,9.25
2018-04-19T15:05:25.808Z,9.05
2018-04-19T15:08:04.911Z,9.17
2018-04-19T15:10:38.627Z,9.61
2018-04-19T15:13:12.242Z,9.71
2018-04-19T15:15:45.874Z,9.08
2018-04-19T15:18:19.496Z,9.20
2018-04-19T15:20:53.152Z,9.71
2018-04-19T15:23:26.781Z,8.99
2018-04-19T15:26:00.956Z,8.97
2018-04-19T15:28:36.186Z,9.51
2018-04-19T15:31:09.883Z,10.32
2018-04-19T15:33:43.528Z,10.24
2018-04-19T15:36:17.177Z,10.10
2018-04-19T15:38:50.684Z,10.37
2018-04-19T15:41:24.449Z,10.04
2018-04-19T15:43:58.519Z,10.22
2018-04-19T15:46:33.053Z,10.17
2018-04-19T15:49:06.767Z,11.09
2018-04-19T15:51:40.556Z,10.82
2018-04-19T15:54:14.182Z,9.81
2018-04-19T15:56:47.855Z,10.09
2018-04-19T15:59:21.408Z,10.25
2018-04-19T16:01:55.683Z,11.06
2018-04-19T16:04:29.278Z,11.77
2018-04-19T16:07:02.805Z,12.53
2018-04-19T16:09:36.456Z,13.40
2018-04-19T16:12:10.255Z,13.50
2018-04-19T16:14:43.791Z,14.03
2018-04-19T16:17:17.503Z,14.95
2018-04-19T16:19:51.119Z,14.60
2018-04-19T16:22:24.807Z,15.33
2018-04-19T16:24:58.579Z,15.13
2018-04-19T16:27:32.652Z,14.97
2018-04-19T16:30:06.360Z,15.52
2018-04-19T16:32:40.016Z,15.46
2018-04-19T16:35:13.700Z,16.33
2018-04-19T16:37:47.931Z,16.13
2018-04-19T16:40:21.699Z,16.24
2018-04-19T16:42:55.456Z,16.46
2018-04-19T16:45:29.225Z,16.65
2018-04-19T16:48:02.960Z,17.09
2018-04-19T16:50:36.580Z,17.31
2018-04-19T16:53:10.438Z,17.18
2018-04-19T16:55:44.200Z,18.00
2018-04-19T16:58:17.727Z,17.67
2018-04-19T17:00:51.509Z,17.51
2018-04-19T17:03:25.033Z,18.05
2018-04-19T17:05:58.821Z,18.30
2018-04-19T17:08:32.811Z,20.53
2018-04-19T17:11:06.391Z,19.27
2018-04-19T17:13:39.903Z,18.93
2018-04-19T17:16:13.472Z,19.44
2018-04-19T17:18:47.260Z,19.25
2018-04-19T17:21:20.880Z,19.17
2018-04-19T17:23:54.460Z,21.01
2018-04-19T17:26:28.064Z,20.56
2018-04-19T17:29:04.622Z,20.59
2018-04-19T17:31:38.424Z,20.67
2018-04-19T17:34:11.984Z,20.58
2018-04-19T17:36:45.511Z,20.99
2018-04-19T17:39:19.052Z,21.04
2018-04-19T17:41:52.608Z,21.05
2018-04-19T17:44:26.360Z,21.35
2018-04-19T17:46:59.916Z,21.38
2018-04-19T17:49:34.377Z,21.76
2018-04-19T17:52:08.857Z,21.66
2018-04-19T17:54:42.564Z,21.67
2018-04-19T17:57:16.243Z,22.25
2018-04-19T17:59:50.832Z,22.15
2018-04-19T18:02:24.356Z,22.63
2018-04-19T18:04:57.972Z,22.78
2018-04-19T18:07:31.516Z,24.14
2018-04-19T18:10:05.299Z,22.98
2018-04-19T18:12:38.820Z,23.68
2018-04-19T18:15:12.336Z,23.43
2018-04-19T18:17:45.881Z,24.27
2018-04-19T18:20:21.282Z,25.72
2018-04-19T18:22:55.035Z,26.60
2018-04-19T18:25:29.156Z,26.16
2018-04-19T18:28:02.945Z,27.32
2018-04-19T18:30:36.424Z,25.83
2018-04-19T18:33:10.125Z,25.88
2018-04-19T18:35:43.975Z,25.36
2018-04-19T18:38:17.508Z,25.18
2018-04-19T18:40:51.036Z,25.00
2018-04-19T18:43:24.742Z,25.31
2018-04-19T18:45:58.425Z,25.79
2018-04-19T18:48:32.144Z,26.39
2018-04-19T18:51:05.685Z,26.05
2018-04-19T18:53:39.400Z,27.91
2018-04-19T18:56:13.112Z,28.57
2018-04-19T18:58:46.631Z,26.33
2018-04-19T19:01:20.236Z,25.62
2018-04-19T19:03:53.719Z,26.52
2018-04-19T19:06:27.472Z,26.42
2018-04-19T19:09:01.576Z,25.96
2018-04-19T19:11:35.808Z,25.75
2018-04-19T19:14:09.373Z,25.38
2018-04-19T19:16:43.378Z,25.78
2018-04-19T19:19:29.015Z,25.90
2018-04-19T19:22:02.700Z,26.34
2018-04-19T19:24:36.281Z,30.58
2018-04-19T19:27:09.940Z,27.41
2018-04-19T19:29:44.400Z,31.27
2018-04-19T19:32:18.143Z,30.12
2018-04-19T19:34:51.728Z,31.43
2018-04-19T19:37:25.529Z,29.36
2018-04-19T19:39:59.082Z,32.02
2018-04-19T19:42:32.655Z,28.54
2018-04-19T19:45:06.643Z,27.37
2018-04-19T19:47:40.362Z,28.14
2018-04-19T19:50:13.866Z,27.71
2018-04-19T19:52:47.614Z,26.94
2018-04-19T19:55:21.178Z,26.56
2018-04-19T19:57:54.799Z,28.38
2018-04-19T20:00:28.360Z,26.77
2018-04-19T20:03:02.180Z,29.40
2018-04-19T20:05:35.833Z,26.31
2018-04-19T20:08:09.487Z,25.97
2018-04-19T20:10:43.070Z,26.62
2018-04-19T20:13:16.844Z,26.76
2018-04-19T20:15:50.484Z,26.39
2018-04-19T20:18:24.155Z,26.04
2018-04-19T20:20:57.775Z,27.46
2018-04-19T20:23:31.599Z,27.11
2018-04-19T20:26:05.137Z,30.54
2018-04-19T20:28:38.800Z,30.15
2018-04-19T20:31:12.315Z,30.74
2018-04-19T20:33:46.825Z,30.50
2018-04-19T20:36:20.471Z,32.10
2018-04-19T20:38:54.176Z,34.21
2018-04-19T20:41:27.752Z,34.22
2018-04-19T20:44:01.600Z,31.20
2018-04-19T20:46:35.240Z,32.83
2018-04-19T20:49:08.916Z,33.00
2018-04-19T20:51:42.544Z,33.52
2018-04-19T20:54:16.335Z,33.69
2018-04-19T20:56:49.849Z,32.88
2018-04-19T20:59:23.376Z,30.88
2018-04-19T21:01:57.061Z,30.11
2018-04-19T21:04:30.804Z,30.97
2018-04-19T21:07:04.335Z,29.76
2018-04-19T21:09:37.886Z,33.59
2018-04-19T21:12:11.396Z,32.67
2018-04-19T21:14:44.946Z,33.50
2018-04-19T21:17:18.580Z,30.97
2018-04-19T21:19:52.427Z,30.21
2018-04-19T21:22:25.908Z,29.88
2018-04-19T21:24:59.690Z,31.83
2018-04-19T21:27:33.325Z,32.21
2018-04-19T21:30:07.116Z,30.01
2018-04-19T21:32:40.744Z,33.24
2018-04-19T21:35:14.349Z,31.16
2018-04-19T21:37:47.928Z,32.23
2018-04-19T21:40:21.656Z,32.52
2018-04-19T21:42:55.310Z,32.46
2018-04-19T21:45:29.075Z,31.10
2018-04-19T21:48:02.628Z,31.34
2018-04-19T21:50:36.180Z,31.58
2018-04-19T21:53:09.939Z,31.75
2018-04-19T21:55:43.684Z,33.35
2018-04-19T21:58:17.793Z,32.51
2018-04-19T22:00:51.548Z,33.04
2018-04-19T22:03:25.114Z,31.86
2018-04-19T22:05:58.692Z,31.84
2018-04-19T22:08:32.399Z,32.23
2018-04-19T22:11:06.048Z,32.56
2018-04-19T22:13:39.652Z,33.53
2018-04-19T22:16:13.238Z,33.10
2018-04-19T22:18:46.784Z,32.18
2018-04-19T22:21:20.467Z,33.67
2018-04-19T22:23:54.527Z,33.08
2018-04-19T22:26:28.124Z,34.09
2018-04-19T22:29:01.653Z,33.31
2018-04-19T22:31:35.404Z,33.67
2018-04-19T22:34:09.004Z,33.96
2018-04-19T22:36:42.636Z,35.35
2018-04-19T22:39:18.564Z,34.93
2018-04-19T22:41:52.307Z,35.14
2018-04-19T22:44:25.995Z,34.61
2018-04-19T22:50:01.612Z,35.12
2018-04-19T22:52:35.343Z,35.25
2018-04-19T22:55:08.820Z,35.95
2018-04-19T22:57:42.507Z,35.44
2018-04-19T23:00:16.985Z,34.64
2018-04-19T23:02:50.646Z,35.31
2018-04-19T23:05:24.349Z,34.97
2018-04-19T23:07:57.970Z,35.30
2018-04-19T23:10:31.750Z,34.26
2018-04-19T23:13:05.628Z,34.52
2018-04-19T23:15:39.248Z,35.93
2018-04-19T23:18:13.004Z,35.46
2018-04-19T23:20:46.531Z,36.07
2018-04-19T23:23:20.116Z,35.79
2018-04-19T23:25:53.834Z,36.52
2018-04-19T23:28:27.452Z,35.57
2018-04-19T23:31:01.024Z,35.91
2018-04-19T23:33:34.675Z,35.70
2018-04-19T23:36:08.556Z,36.67
2018-04-19T23:38:42.236Z,35.62
2018-04-19T23:41:16.008Z,34.94
2018-04-19T23:43:49.664Z,35.28
2018-04-19T23:46:23.263Z,33.78
2018-04-19T23:48:56.832Z,33.37
2018-04-19T23:51:30.423Z,33.47
2018-04-19T23:54:04.032Z,35.19
2018-04-19T23:56:37.802Z,35.07
2018-04-19T23:59:11.538Z,34.31
